createdAt,value
2023-05-03T00:01:44.851Z,5.45
2023-05-03T00:04:16.060Z,6.25
2023-05-03T00:06:45.032Z,8.85
2023-05-03T00:09:15.176Z,5.65
2023-05-03T00:11:44.065Z,7.10
2023-05-03T00:14:12.472Z,7.53
2023-05-03T00:16:40.721Z,6.03
2023-05-03T00:19:15.059Z,5.47
2023-05-03T00:21:52.950Z,7.07
2023-05-03T00:24:22.908Z,6.85
2023-05-03T00:26:51.661Z,5.38
2023-05-03T00:29:21.274Z,7.13
2023-05-03T00:31:49.836Z,6.43
2023-05-03T00:34:17.854Z,5.70
2023-05-03T00:36:46.314Z,5.75
2023-05-03T00:39:16.853Z,5.97
2023-05-03T00:41:46.676Z,7.53
2023-05-03T00:44:14.966Z,6.80
2023-05-03T00:46:43.198Z,6.03
2023-05-03T00:49:11.482Z,8.60
2023-05-03T00:51:39.808Z,6.88
2023-05-03T00:54:08.498Z,9.23
2023-05-03T00:56:47.829Z,7.28
2023-05-03T00:59:21.569Z,9.18
2023-05-03T01:01:51.176Z,7.50
2023-05-03T01:04:20.945Z,7.65
2023-05-03T01:07:00.659Z,6.53
2023-05-03T01:09:36.820Z,5.97
2023-05-03T01:12:18.649Z,9.55
2023-05-03T01:15:00.269Z,11.43
2023-05-03T01:17:30.696Z,8.70
2023-05-03T01:20:08.511Z,8.85
2023-05-03T01:22:45.622Z,8.93
2023-05-03T01:25:17.002Z,10.63
2023-05-03T01:27:45.836Z,9.10
2023-05-03T01:30:15.139Z,15.90
2023-05-03T01:32:52.588Z,9.90
2023-05-03T01:35:29.325Z,7.80
2023-05-03T01:37:59.454Z,7.63
2023-05-03T01:40:31.208Z,7.03
2023-05-03T01:43:01.099Z,8.13
2023-05-03T01:45:29.732Z,10.02
2023-05-03T01:47:58.876Z,10.18
2023-05-03T01:50:27.735Z,8.38
2023-05-03T01:52:56.008Z,10.30
2023-05-03T01:55:24.245Z,13.02
2023-05-03T01:57:54.172Z,12.95
2023-05-03T02:00:23.052Z,9.90
2023-05-03T02:02:51.437Z,14.25
2023-05-03T02:05:20.055Z,11.63
2023-05-03T02:07:49.109Z,11.30
2023-05-03T02:10:17.519Z,10.15
2023-05-03T02:12:46.611Z,12.93
2023-05-03T02:15:16.951Z,11.52
2023-05-03T02:17:45.874Z,11.82
2023-05-03T02:20:14.729Z,11.13
2023-05-03T02:22:43.827Z,14.23
2023-05-03T02:25:12.036Z,11.63
2023-05-03T02:27:41.050Z,13.55
2023-05-03T02:30:10.934Z,10.18
2023-05-03T02:32:40.720Z,12.75
2023-05-03T02:35:09.991Z,12.82
2023-05-03T02:37:38.676Z,11.05
2023-05-03T02:40:08.917Z,12.38
2023-05-03T02:42:37.581Z,12.75
2023-05-03T02:45:06.854Z,12.13
2023-05-03T02:47:35.180Z,17.30
2023-05-03T02:50:06.649Z,10.82
2023-05-03T02:52:35.001Z,16.00
2023-05-03T02:55:03.821Z,12.52
2023-05-03T02:57:32.378Z,12.45
2023-05-03T03:00:01.020Z,10.65
2023-05-03T03:02:29.594Z,11.10
2023-05-03T03:04:58.111Z,11.35
2023-05-03T03:07:28.478Z,11.02
2023-05-03T03:09:57.362Z,11.13
2023-05-03T03:12:26.775Z,10.93
2023-05-03T03:14:55.257Z,11.98
2023-05-03T03:17:23.723Z,10.10
2023-05-03T03:19:52.031Z,9.50
2023-05-03T03:22:20.318Z,11.43
2023-05-03T03:24:50.918Z,13.38
2023-05-03T03:27:21.705Z,9.95
2023-05-03T03:29:50.368Z,11.55
2023-05-03T03:32:18.890Z,14.02
2023-05-03T03:34:47.783Z,11.05
2023-05-03T03:37:16.144Z,12.48
2023-05-03T03:39:44.915Z,11.55
2023-05-03T03:42:18.977Z,14.07
2023-05-03T03:44:47.428Z,12.02
2023-05-03T03:47:15.630Z,12.63
2023-05-03T03:49:44.333Z,13.15
2023-05-03T03:52:14.240Z,16.27
2023-05-03T03:54:42.955Z,12.85
2023-05-03T03:57:11.062Z,11.48
2023-05-03T03:59:44.715Z,9.80
2023-05-03T04:02:14.427Z,17.23
2023-05-03T04:04:42.763Z,10.90
2023-05-03T04:07:12.207Z,11.68
2023-05-03T04:09:40.469Z,13.23
2023-05-03T04:12:09.270Z,12.60
2023-05-03T04:14:38.167Z,16.58
2023-05-03T04:17:08.616Z,13.50
2023-05-03T04:19:38.723Z,12.60
2023-05-03T04:22:07.558Z,9.30
2023-05-03T04:24:36.399Z,9.68
2023-05-03T04:27:04.987Z,10.90
2023-05-03T04:29:35.232Z,19.85
2023-05-03T04:32:04.498Z,14.60
2023-05-03T04:34:34.641Z,13.07
2023-05-03T04:37:03.028Z,11.43
2023-05-03T04:39:31.380Z,8.88
2023-05-03T04:42:02.578Z,11.15
2023-05-03T04:44:31.148Z,13.45
2023-05-03T04:47:00.206Z,13.95
2023-05-03T04:49:28.834Z,18.65
2023-05-03T04:51:59.331Z,11.85
2023-05-03T04:54:27.954Z,10.77
2023-05-03T04:56:57.200Z,11.57
2023-05-03T04:59:25.935Z,14.27
2023-05-03T05:01:54.733Z,14.02
2023-05-03T05:04:23.441Z,17.60
2023-05-03T05:06:53.379Z,16.45
2023-05-03T05:09:27.872Z,11.45
2023-05-03T05:11:57.339Z,15.95
2023-05-03T05:14:28.055Z,15.07
2023-05-03T05:16:56.918Z,13.40
2023-05-03T05:19:25.512Z,11.52
2023-05-03T05:21:54.939Z,12.55
2023-05-03T05:24:23.722Z,11.90
2023-05-03T05:26:54.557Z,14.65
2023-05-03T05:29:23.150Z,15.38
2023-05-03T05:31:52.406Z,12.50
2023-05-03T05:34:22.174Z,12.50
2023-05-03T05:36:53.169Z,13.02
2023-05-03T05:39:23.538Z,20.73
2023-05-03T05:41:54.285Z,11.70
2023-05-03T05:44:23.305Z,13.18
2023-05-03T05:46:52.177Z,12.82
2023-05-03T05:49:21.499Z,10.73
2023-05-03T05:51:50.403Z,13.02
2023-05-03T05:54:18.785Z,15.75
2023-05-03T05:56:47.743Z,14.65
2023-05-03T05:59:18.240Z,14.90
2023-05-03T06:01:47.314Z,10.98
2023-05-03T06:04:16.292Z,13.18
2023-05-03T06:06:45.223Z,14.85
2023-05-03T06:09:24.117Z,12.68
2023-05-03T06:11:53.513Z,18.10
2023-05-03T06:14:23.265Z,13.93
2023-05-03T06:16:55.051Z,15.10
2023-05-03T06:19:24.778Z,13.80
2023-05-03T06:21:53.742Z,11.68
2023-05-03T06:24:22.417Z,17.08
2023-05-03T06:26:50.697Z,10.32
2023-05-03T06:29:19.159Z,12.65
2023-05-03T06:31:49.860Z,9.68
2023-05-03T06:34:22.095Z,18.25
2023-05-03T06:36:51.895Z,11.88
2023-05-03T06:39:20.604Z,12.63
2023-05-03T06:41:49.433Z,12.85
2023-05-03T06:44:18.336Z,13.52
2023-05-03T06:46:46.927Z,7.82
2023-05-03T06:49:17.248Z,10.18
2023-05-03T06:51:46.365Z,10.32
2023-05-03T06:54:16.021Z,10.65
2023-05-03T06:56:44.752Z,13.45
2023-05-03T06:59:13.002Z,9.75
2023-05-03T07:01:41.751Z,10.80
2023-05-03T07:04:10.275Z,13.93
2023-05-03T07:06:52.480Z,13.73
2023-05-03T07:09:35.782Z,10.70
2023-05-03T07:12:11.062Z,17.00
2023-05-03T07:14:40.195Z,10.05
2023-05-03T07:17:10.255Z,7.93
2023-05-03T07:19:38.722Z,12.00
2023-05-03T07:22:08.803Z,12.55
2023-05-03T07:24:38.164Z,10.13
2023-05-03T07:27:07.295Z,8.07
2023-05-03T07:29:36.180Z,9.75
2023-05-03T07:32:05.324Z,8.57
2023-05-03T07:34:34.322Z,9.32
2023-05-03T07:37:02.736Z,9.45
2023-05-03T07:39:33.389Z,9.57
2023-05-03T07:42:02.430Z,9.60
2023-05-03T07:44:31.841Z,11.07
2023-05-03T07:47:01.058Z,8.55
2023-05-03T07:49:29.975Z,10.00
2023-05-03T07:52:03.113Z,8.75
2023-05-03T07:54:35.319Z,13.30
2023-05-03T07:57:04.160Z,7.65
2023-05-03T07:59:32.796Z,12.07
2023-05-03T08:02:01.977Z,12.13
2023-05-03T08:04:30.900Z,11.20
2023-05-03T08:07:02.722Z,11.02
2023-05-03T08:09:32.711Z,10.68
2023-05-03T08:12:02.865Z,8.32
2023-05-03T08:14:31.267Z,8.15
2023-05-03T08:17:00.395Z,9.35
2023-05-03T08:19:29.412Z,7.35
2023-05-03T08:21:58.868Z,9.85
2023-05-03T08:24:28.234Z,7.95
2023-05-03T08:26:59.270Z,7.93
2023-05-03T08:29:28.491Z,9.13
2023-05-03T08:31:58.241Z,6.85
2023-05-03T08:34:30.433Z,7.90
2023-05-03T08:36:59.763Z,11.25
2023-05-03T08:39:28.339Z,9.98
2023-05-03T08:41:58.665Z,8.95
2023-05-03T08:44:32.142Z,10.05
2023-05-03T08:47:01.802Z,7.80
2023-05-03T08:49:32.537Z,9.57
2023-05-03T08:52:02.524Z,6.40
2023-05-03T08:54:31.309Z,7.75
2023-05-03T08:57:02.029Z,9.50
2023-05-03T08:59:32.331Z,6.25
2023-05-03T09:02:00.919Z,7.03
2023-05-03T09:04:35.337Z,12.52
2023-05-03T09:07:10.595Z,7.38
2023-05-03T09:09:40.217Z,6.30
2023-05-03T09:12:11.468Z,4.22
2023-05-03T09:14:48.059Z,7.75
2023-05-03T09:17:18.318Z,6.18
2023-05-03T09:19:54.713Z,7.72
2023-05-03T09:22:27.409Z,7.80
2023-05-03T09:24:58.189Z,10.18
2023-05-03T09:27:29.674Z,6.47
2023-05-03T09:29:58.279Z,7.82
2023-05-03T09:32:31.138Z,5.18
2023-05-03T09:35:11.611Z,7.68
2023-05-03T09:37:40.300Z,7.93
2023-05-03T09:40:11.902Z,7.38
2023-05-03T09:43:05.045Z,10.50
2023-05-03T09:45:34.659Z,5.47
2023-05-03T09:48:06.214Z,7.22
2023-05-03T09:50:36.050Z,5.05
2023-05-03T09:53:07.640Z,5.45
2023-05-03T09:55:38.283Z,4.70
2023-05-03T09:58:09.868Z,3.15
2023-05-03T10:00:40.722Z,5.40
2023-05-03T10:03:12.046Z,5.57
2023-05-03T10:05:47.665Z,4.53
2023-05-03T10:08:24.886Z,4.38
2023-05-03T10:10:54.530Z,5.38
2023-05-03T10:13:25.987Z,5.60
2023-05-03T10:16:01.215Z,5.10
2023-05-03T10:18:34.083Z,5.50
2023-05-03T10:21:06.391Z,4.20
2023-05-03T10:23:34.978Z,4.85
2023-05-03T10:26:17.299Z,4.10
2023-05-03T10:28:48.299Z,5.13
2023-05-03T10:31:46.521Z,5.28
2023-05-03T10:34:34.392Z,7.68
2023-05-03T10:37:04.617Z,5.82
2023-05-03T10:39:33.535Z,4.00
2023-05-03T10:42:05.064Z,5.78
2023-05-03T10:44:42.973Z,4.70
2023-05-03T10:47:14.734Z,2.83
2023-05-03T10:49:46.443Z,4.88
2023-05-03T10:52:47.821Z,7.78
2023-05-03T10:55:18.440Z,4.45
2023-05-03T10:57:48.667Z,3.90
2023-05-03T11:00:26.001Z,4.05
2023-05-03T11:03:14.285Z,7.13
2023-05-03T11:05:43.341Z,5.43
2023-05-03T11:08:14.039Z,5.32
2023-05-03T11:10:43.578Z,5.47
2023-05-03T11:13:12.893Z,4.93
2023-05-03T11:15:44.839Z,5.90
2023-05-03T11:18:16.938Z,3.90
2023-05-03T11:20:46.069Z,4.07
2023-05-03T11:23:15.529Z,6.93
2023-05-03T11:25:44.476Z,5.32
2023-05-03T11:28:13.930Z,4.32
2023-05-03T11:30:43.975Z,3.05
2023-05-03T11:33:14.428Z,5.05
2023-05-03T11:35:43.779Z,5.40
2023-05-03T11:38:12.599Z,4.05
2023-05-03T11:40:41.917Z,3.70
2023-05-03T11:43:10.316Z,5.13
2023-05-03T11:45:44.878Z,3.78
2023-05-03T11:48:15.911Z,7.60
2023-05-03T11:50:49.145Z,8.32
2023-05-03T11:53:18.533Z,4.90
2023-05-03T11:55:49.477Z,3.28
2023-05-03T11:58:22.266Z,3.10
2023-05-03T12:00:52.202Z,2.78
2023-05-03T12:03:27.737Z,4.10
2023-05-03T12:06:01.873Z,2.53
2023-05-03T12:08:36.396Z,5.35
2023-05-03T12:11:09.865Z,2.80
2023-05-03T12:13:40.675Z,4.18
2023-05-03T12:16:14.378Z,2.80
2023-05-03T12:23:56.000Z,2.75
2023-05-03T12:28:56.851Z,4.18
2023-05-03T12:31:29.121Z,5.22
2023-05-03T12:36:37.165Z,2.40
2023-05-03T12:39:10.141Z,3.42
2023-05-03T12:42:06.395Z,2.70
2023-05-03T12:44:29.348Z,5.18
2023-05-03T12:47:01.117Z,4.13
2023-05-03T12:49:31.961Z,3.50
2023-05-03T12:52:33.028Z,5.05
2023-05-03T12:54:55.240Z,3.97
2023-05-03T12:57:26.847Z,3.25
2023-05-03T13:00:03.062Z,2.38
2023-05-03T13:05:13.110Z,6.65
2023-05-03T13:07:56.133Z,3.13
2023-05-03T13:10:27.602Z,3.33
2023-05-03T13:12:57.265Z,5.28
2023-05-03T13:15:27.593Z,2.92
2023-05-03T13:17:57.600Z,2.80
2023-05-03T13:20:29.497Z,2.47
2023-05-03T13:22:59.129Z,1.77
2023-05-03T13:25:29.652Z,2.40
2023-05-03T13:27:58.445Z,3.35
2023-05-03T13:30:27.899Z,3.30
2023-05-03T13:32:57.070Z,3.55
2023-05-03T13:35:28.082Z,3.72
2023-05-03T13:37:57.119Z,3.90
2023-05-03T13:40:26.313Z,3.08
2023-05-03T13:42:55.823Z,2.20
2023-05-03T13:45:26.146Z,3.45
2023-05-03T13:48:11.831Z,1.70
2023-05-03T13:50:46.986Z,2.55
2023-05-03T13:53:16.771Z,5.22
2023-05-03T13:55:45.940Z,1.50
2023-05-03T13:58:15.150Z,3.65
2023-05-03T14:00:44.087Z,4.20
2023-05-03T14:03:13.297Z,2.03
2023-05-03T14:05:44.063Z,1.88
2023-05-03T14:08:15.672Z,2.47
2023-05-03T14:10:45.354Z,3.63
2023-05-03T14:13:14.635Z,3.42
2023-05-03T14:15:44.268Z,2.72
2023-05-03T14:18:13.353Z,3.95
2023-05-03T14:20:42.556Z,2.58
2023-05-03T14:23:11.837Z,3.92
2023-05-03T14:25:43.105Z,2.75
2023-05-03T14:28:11.920Z,1.52
2023-05-03T14:30:40.761Z,3.92
2023-05-03T14:33:10.307Z,3.53
2023-05-03T14:35:38.861Z,2.13
2023-05-03T14:38:07.870Z,1.65
2023-05-03T14:40:36.387Z,2.15
2023-05-03T14:43:08.233Z,3.83
2023-05-03T14:45:37.876Z,2.45
2023-05-03T14:48:07.964Z,2.15
2023-05-03T14:50:36.680Z,1.42
2023-05-03T14:53:05.381Z,2.17
2023-05-03T14:55:33.816Z,3.53
2023-05-03T14:58:02.662Z,1.73
2023-05-03T15:00:33.232Z,7.57
2023-05-03T15:03:01.871Z,1.85
2023-05-03T15:05:31.860Z,2.80
2023-05-03T15:08:01.116Z,2.78
2023-05-03T15:10:29.372Z,1.73
2023-05-03T15:12:58.315Z,2.47
2023-05-03T15:15:27.162Z,1.27
2023-05-03T15:17:58.616Z,1.52
2023-05-03T15:20:27.622Z,1.92
2023-05-03T15:22:56.674Z,2.83
2023-05-03T15:25:25.335Z,2.67
2023-05-03T15:27:54.008Z,1.67
2023-05-03T15:30:22.562Z,3.35
2023-05-03T15:32:52.122Z,1.98
2023-05-03T15:35:22.991Z,2.00
2023-05-03T15:37:51.764Z,1.00
2023-05-03T15:40:23.777Z,2.22
2023-05-03T15:42:53.264Z,1.60
2023-05-03T15:45:23.444Z,3.08
2023-05-03T15:47:52.883Z,2.58
2023-05-03T15:50:22.735Z,2.42
2023-05-03T15:52:51.340Z,2.95
2023-05-03T15:55:20.473Z,2.05
2023-05-03T15:57:49.969Z,1.45
2023-05-03T16:00:20.440Z,1.30
2023-05-03T16:02:51.689Z,1.15
2023-05-03T16:05:20.802Z,2.03
2023-05-03T16:07:51.571Z,1.65
2023-05-03T16:10:23.426Z,2.45
2023-05-03T16:12:53.085Z,1.73
2023-05-03T16:15:21.848Z,1.73
2023-05-03T16:17:50.227Z,1.02
2023-05-03T16:20:19.213Z,2.08
2023-05-03T16:22:49.256Z,3.05
2023-05-03T16:25:20.911Z,1.60
2023-05-03T16:27:49.975Z,1.42
2023-05-03T16:30:19.836Z,2.88
2023-05-03T16:32:50.116Z,1.65
2023-05-03T16:35:19.201Z,2.75
2023-05-03T16:37:50.669Z,1.13
2023-05-03T16:40:22.179Z,2.40
2023-05-03T16:42:53.009Z,2.83
2023-05-03T16:45:22.680Z,1.13
2023-05-03T16:47:53.125Z,1.35
2023-05-03T16:50:22.149Z,3.53
2023-05-03T16:52:52.213Z,1.67
2023-05-03T16:55:26.583Z,1.73
2023-05-03T16:57:55.725Z,1.50
2023-05-03T17:00:24.767Z,1.17
2023-05-03T17:02:54.900Z,1.48
2023-05-03T17:05:26.926Z,2.00
2023-05-03T17:07:55.369Z,3.30
2023-05-03T17:10:27.230Z,1.70
2023-05-03T17:12:57.380Z,1.50
2023-05-03T17:15:26.570Z,3.08
2023-05-03T17:17:55.981Z,2.33
2023-05-03T17:20:25.787Z,3.72
2023-05-03T17:22:58.044Z,2.95
2023-05-03T17:25:28.749Z,1.88
2023-05-03T17:27:57.509Z,1.30
2023-05-03T17:30:26.869Z,2.03
2023-05-03T17:32:56.809Z,1.80
2023-05-03T17:35:26.447Z,1.88
2023-05-03T17:37:55.734Z,3.05
2023-05-03T17:40:27.059Z,2.45
2023-05-03T17:42:57.991Z,1.45
2023-05-03T17:45:28.192Z,1.63
2023-05-03T17:47:59.245Z,5.70
2023-05-03T17:50:28.203Z,3.90
2023-05-03T17:52:58.640Z,1.95
2023-05-03T17:55:29.125Z,1.55
2023-05-03T17:58:00.632Z,1.98
2023-05-03T18:00:29.870Z,1.67
2023-05-03T18:02:59.285Z,1.48
2023-05-03T18:05:28.141Z,1.90
2023-05-03T18:07:57.004Z,4.28
2023-05-03T18:10:26.192Z,1.80
2023-05-03T18:12:56.066Z,2.22
2023-05-03T18:15:26.638Z,2.45
2023-05-03T18:17:57.101Z,3.10
2023-05-03T18:20:25.962Z,3.25
2023-05-03T18:22:54.812Z,5.05
2023-05-03T18:25:23.952Z,2.75
2023-05-03T18:27:54.589Z,3.53
2023-05-03T18:30:23.575Z,2.45
2023-05-03T18:32:54.797Z,4.18
2023-05-03T18:35:24.246Z,2.08
2023-05-03T18:37:53.651Z,1.95
2023-05-03T18:40:22.872Z,1.83
2023-05-03T18:42:51.950Z,1.92
2023-05-03T18:45:22.319Z,4.10
2023-05-03T18:47:53.321Z,2.28
2023-05-03T18:50:22.047Z,1.48
2023-05-03T18:52:51.600Z,1.38
2023-05-03T18:55:21.064Z,3.95
2023-05-03T18:57:50.200Z,4.20
2023-05-03T19:00:20.109Z,2.20
2023-05-03T19:02:49.408Z,2.80
2023-05-03T19:05:20.273Z,3.97
2023-05-03T19:07:50.245Z,2.97
2023-05-03T19:10:19.996Z,1.95
2023-05-03T19:12:51.398Z,3.13
2023-05-03T19:15:21.268Z,1.30
2023-05-03T19:17:51.213Z,3.63
2023-05-03T19:20:21.877Z,2.47
2023-05-03T19:22:50.846Z,2.65
2023-05-03T19:25:21.539Z,2.10
2023-05-03T19:27:51.704Z,2.63
2023-05-03T19:30:21.379Z,1.15
2023-05-03T19:32:50.960Z,1.83
2023-05-03T19:35:21.633Z,3.47
2023-05-03T19:37:50.594Z,3.95
2023-05-03T19:40:19.360Z,2.83
2023-05-03T19:42:48.435Z,2.28
2023-05-03T19:45:17.405Z,3.08
2023-05-03T19:47:46.556Z,3.00
2023-05-03T19:50:15.890Z,2.83
2023-05-03T19:52:46.330Z,1.75
2023-05-03T19:55:15.781Z,2.83
2023-05-03T19:57:44.587Z,3.10
2023-05-03T20:00:16.116Z,1.73
2023-05-03T20:02:44.739Z,3.63
2023-05-03T20:05:14.404Z,2.05
2023-05-03T20:07:43.543Z,3.22
2023-05-03T20:10:14.425Z,2.72
2023-05-03T20:12:43.507Z,7.15
2023-05-03T20:15:13.979Z,2.47
2023-05-03T20:17:43.227Z,2.58
2023-05-03T20:20:12.774Z,5.75
2023-05-03T20:22:41.592Z,2.67
2023-05-03T20:25:11.165Z,3.53
2023-05-03T20:27:42.541Z,3.80
2023-05-03T20:30:11.670Z,1.70
2023-05-03T20:32:41.150Z,3.72
2023-05-03T20:35:12.282Z,5.85
2023-05-03T20:37:41.563Z,2.67
2023-05-03T20:40:12.656Z,2.88
2023-05-03T20:42:45.106Z,2.88
2023-05-03T20:45:14.439Z,1.88
2023-05-03T20:47:42.840Z,2.03
2023-05-03T20:50:12.425Z,2.42
2023-05-03T20:52:41.320Z,2.35
2023-05-03T20:55:10.509Z,2.70
2023-05-03T20:57:45.362Z,2.40
2023-05-03T21:00:16.712Z,2.67
2023-05-03T21:02:46.819Z,3.53
2023-05-03T21:05:15.325Z,3.85
2023-05-03T21:07:43.970Z,3.13
2023-05-03T21:10:12.530Z,3.83
2023-05-03T21:12:43.044Z,2.38
2023-05-03T21:15:12.607Z,4.25
2023-05-03T21:17:41.060Z,3.83
2023-05-03T21:20:11.401Z,4.53
2023-05-03T21:22:39.668Z,5.70
2023-05-03T21:25:09.372Z,4.60
2023-05-03T21:27:38.015Z,6.05
2023-05-03T21:30:09.578Z,3.63
2023-05-03T21:32:38.293Z,5.05
2023-05-03T21:35:08.162Z,5.30
2023-05-03T21:37:37.266Z,3.45
2023-05-03T21:40:07.540Z,4.65
2023-05-03T21:42:35.953Z,3.60
2023-05-03T21:45:04.696Z,7.25
2023-05-03T21:47:35.020Z,4.00
2023-05-03T21:50:06.573Z,5.03
2023-05-03T21:52:35.440Z,3.40
2023-05-03T21:55:04.185Z,2.97
2023-05-03T21:57:33.329Z,2.97
2023-05-03T22:00:02.048Z,5.43
2023-05-03T22:02:34.353Z,4.20
2023-05-03T22:05:04.673Z,3.55
2023-05-03T22:07:33.921Z,7.93
2023-05-03T22:10:03.208Z,2.67
2023-05-03T22:12:32.058Z,4.32
2023-05-03T22:15:00.689Z,4.25
2023-05-03T22:17:29.223Z,4.28
2023-05-03T22:19:58.228Z,4.22
2023-05-03T22:22:28.635Z,3.63
2023-05-03T22:24:57.515Z,6.57
2023-05-03T22:27:26.194Z,4.32
2023-05-03T22:29:55.008Z,3.63
2023-05-03T22:32:23.565Z,5.18
2023-05-03T22:34:52.058Z,5.47
2023-05-03T22:37:22.803Z,5.20
2023-05-03T22:39:53.077Z,6.20
2023-05-03T22:42:21.316Z,4.45
2023-05-03T22:44:50.464Z,6.30
2023-05-03T22:47:18.924Z,3.72
2023-05-03T22:49:47.688Z,4.53
2023-05-03T22:52:16.009Z,3.13
2023-05-03T22:54:44.653Z,4.57
2023-05-03T22:57:14.516Z,3.97
2023-05-03T22:59:47.488Z,5.47
2023-05-03T23:02:17.816Z,4.20
2023-05-03T23:04:46.198Z,5.32
2023-05-03T23:07:14.746Z,4.55
2023-05-03T23:09:43.383Z,9.32
2023-05-03T23:12:11.944Z,4.18
2023-05-03T23:14:44.014Z,4.30
2023-05-03T23:17:12.810Z,4.53
2023-05-03T23:19:41.212Z,4.50
2023-05-03T23:22:09.693Z,4.65
2023-05-03T23:24:38.874Z,5.53
2023-05-03T23:27:08.298Z,3.83
2023-05-03T23:29:37.439Z,5.78
2023-05-03T23:32:08.928Z,4.22
2023-05-03T23:34:37.968Z,4.55
2023-05-03T23:37:06.237Z,3.55
2023-05-03T23:39:37.038Z,3.88
2023-05-03T23:42:06.562Z,5.03
2023-05-03T23:44:50.381Z,7.05
2023-05-03T23:47:24.287Z,3.22
2023-05-03T23:49:52.734Z,6.20
2023-05-03T23:52:22.010Z,6.45
2023-05-03T23:54:50.962Z,5.00
2023-05-03T23:57:19.194Z,4.55
2023-05-03T23:59:47.463Z,8.43
